createdAt,value
2022-08-29T00:00:47.326Z,26.48
2022-08-29T00:01:46.613Z,26.53
2022-08-29T00:02:46.590Z,26.55
2022-08-29T00:03:46.571Z,26.44
2022-08-29T00:04:46.527Z,26.43
2022-08-29T00:05:50.079Z,26.44
2022-08-29T00:06:46.499Z,26.43
2022-08-29T00:07:46.500Z,26.41
2022-08-29T00:08:46.519Z,26.38
2022-08-29T00:09:46.448Z,26.40
2022-08-29T00:10:46.450Z,26.40
2022-08-29T00:11:46.641Z,26.36
2022-08-29T00:12:46.428Z,26.26
2022-08-29T00:13:46.387Z,26.31
2022-08-29T00:14:46.371Z,26.31
2022-08-29T00:15:46.376Z,26.28
2022-08-29T00:16:46.420Z,26.29
2022-08-29T00:17:46.369Z,26.21
2022-08-29T00:18:46.306Z,26.26
2022-08-29T00:19:46.302Z,26.28
2022-08-29T00:20:46.300Z,26.19
2022-08-29T00:21:46.296Z,26.21
2022-08-29T00:22:46.304Z,26.22
2022-08-29T00:23:46.246Z,26.26
2022-08-29T00:24:46.243Z,26.16
2022-08-29T00:25:46.221Z,26.21
2022-08-29T00:26:46.210Z,26.21
2022-08-29T00:27:49.771Z,26.16
2022-08-29T00:28:46.161Z,26.16
2022-08-29T00:29:46.173Z,26.10
2022-08-29T00:30:46.162Z,26.09
2022-08-29T00:31:47.074Z,26.09
2022-08-29T00:32:46.104Z,26.09
2022-08-29T00:33:46.094Z,26.09
2022-08-29T00:34:46.079Z,26.13
2022-08-29T00:35:46.099Z,26.10
2022-08-29T00:36:48.946Z,26.25
2022-08-29T00:37:46.028Z,26.06
2022-08-29T00:38:46.031Z,26.10
2022-08-29T00:39:46.014Z,26.13
2022-08-29T00:40:51.638Z,26.19
2022-08-29T00:41:46.544Z,26.13
2022-08-29T00:42:45.960Z,26.09
2022-08-29T00:43:45.961Z,26.18
2022-08-29T00:44:45.933Z,26.07
2022-08-29T00:45:45.942Z,26.18
2022-08-29T00:46:45.891Z,26.05
2022-08-29T00:47:45.889Z,26.15
2022-08-29T00:48:45.875Z,26.07
2022-08-29T00:49:45.874Z,26.10
2022-08-29T00:50:46.514Z,26.05
2022-08-29T00:51:45.818Z,26.06
2022-08-29T00:52:45.822Z,26.03
2022-08-29T00:53:45.798Z,26.07
2022-08-29T00:54:45.778Z,26.07
2022-08-29T00:55:50.371Z,26.05
2022-08-29T00:56:45.740Z,26.07
2022-08-29T00:57:45.752Z,26.13
2022-08-29T00:58:45.739Z,26.06
2022-08-29T00:59:45.731Z,26.03
2022-08-29T01:00:45.711Z,26.07
2022-08-29T01:01:45.718Z,26.03
2022-08-29T01:02:45.710Z,26.10
2022-08-29T01:03:45.650Z,26.07
2022-08-29T01:04:46.527Z,26.09
2022-08-29T01:05:45.606Z,26.05
2022-08-29T01:06:45.606Z,26.05
2022-08-29T01:07:45.591Z,26.09
2022-08-29T01:08:45.585Z,26.03
2022-08-29T01:09:45.599Z,26.07
2022-08-29T01:10:45.534Z,26.06
2022-08-29T01:11:45.536Z,26.02
2022-08-29T01:12:45.521Z,26.06
2022-08-29T01:13:45.517Z,26.06
2022-08-29T01:14:45.522Z,26.03
2022-08-29T01:15:45.463Z,25.99
2022-08-29T01:16:45.679Z,26.05
2022-08-29T01:17:45.458Z,26.00
2022-08-29T01:18:45.453Z,26.00
2022-08-29T01:19:45.400Z,25.99
2022-08-29T01:20:45.432Z,25.98
2022-08-29T01:21:45.384Z,25.96
2022-08-29T01:22:45.382Z,26.02
2022-08-29T01:23:45.383Z,26.02
2022-08-29T01:24:45.324Z,26.02
2022-08-29T01:25:45.405Z,26.00
2022-08-29T01:26:45.322Z,25.91
2022-08-29T01:27:45.295Z,25.87
2022-08-29T01:28:45.321Z,25.93
2022-08-29T01:29:45.257Z,25.88
2022-08-29T01:30:45.238Z,25.90
2022-08-29T01:31:55.989Z,25.93
2022-08-29T01:32:45.245Z,25.90
2022-08-29T01:33:45.185Z,25.85
2022-08-29T01:34:45.185Z,25.83
2022-08-29T01:35:45.161Z,25.91
2022-08-29T01:36:45.167Z,25.93
2022-08-29T01:37:46.097Z,25.91
2022-08-29T01:38:45.112Z,25.90
2022-08-29T01:39:45.118Z,25.91
2022-08-29T01:40:45.096Z,25.90
2022-08-29T01:41:45.096Z,25.95
2022-08-29T01:42:45.045Z,25.91
2022-08-29T01:43:45.039Z,25.90
2022-08-29T01:44:45.043Z,25.84
2022-08-29T01:45:45.054Z,25.84
2022-08-29T01:46:45.034Z,25.87
2022-08-29T01:47:44.976Z,25.83
2022-08-29T01:48:44.958Z,25.77
2022-08-29T01:49:44.946Z,25.77
2022-08-29T01:50:44.954Z,25.77
2022-08-29T01:51:44.977Z,25.75
2022-08-29T01:52:44.897Z,25.68
2022-08-29T01:53:44.905Z,25.69
2022-08-29T01:54:44.876Z,25.66
2022-08-29T01:55:44.852Z,25.69
2022-08-29T01:56:44.839Z,25.65
2022-08-29T01:57:44.831Z,25.60
2022-08-29T01:58:44.804Z,25.53
2022-08-29T01:59:44.801Z,25.55
2022-08-29T02:00:44.918Z,25.51
2022-08-29T02:01:44.818Z,25.47
2022-08-29T02:02:44.744Z,25.53
2022-08-29T02:03:44.745Z,25.53
2022-08-29T02:04:44.794Z,25.51
2022-08-29T02:05:44.709Z,25.44
2022-08-29T02:06:44.691Z,25.54
2022-08-29T02:07:44.682Z,25.53
2022-08-29T02:08:44.658Z,25.55
2022-08-29T02:09:45.875Z,25.59
2022-08-29T02:10:44.622Z,25.54
2022-08-29T02:11:44.627Z,25.50
2022-08-29T02:12:44.618Z,25.63
2022-08-29T02:13:44.603Z,25.60
2022-08-29T02:14:44.619Z,25.58
2022-08-29T02:15:44.563Z,25.59
2022-08-29T02:16:44.596Z,25.60
2022-08-29T02:17:44.539Z,25.63
2022-08-29T02:18:44.490Z,25.60
2022-08-29T02:19:44.479Z,25.38
2022-08-29T02:20:44.489Z,25.48
2022-08-29T02:21:44.482Z,25.55
2022-08-29T02:22:44.464Z,25.54
2022-08-29T02:23:44.424Z,25.55
2022-08-29T02:24:44.405Z,25.50
2022-08-29T02:25:44.436Z,25.48
2022-08-29T02:26:44.394Z,25.53
2022-08-29T02:27:44.397Z,25.51
2022-08-29T02:28:44.394Z,25.53
2022-08-29T02:29:44.334Z,25.46
2022-08-29T02:30:44.324Z,25.54
2022-08-29T02:31:44.353Z,25.38
2022-08-29T02:32:44.331Z,25.55
2022-08-29T02:33:44.320Z,25.47
2022-08-29T02:34:44.811Z,25.41
2022-08-29T02:35:44.245Z,25.47
2022-08-29T02:36:44.637Z,25.41
2022-08-29T02:37:45.082Z,25.44
2022-08-29T02:38:44.195Z,25.40
2022-08-29T02:39:44.180Z,25.46
2022-08-29T02:40:44.212Z,25.36
2022-08-29T02:41:44.419Z,25.43
2022-08-29T02:42:44.185Z,25.41
2022-08-29T02:43:44.108Z,25.53
2022-08-29T02:44:44.108Z,25.55
2022-08-29T02:45:44.109Z,25.44
2022-08-29T02:46:44.122Z,25.41
2022-08-29T02:47:44.051Z,25.46
2022-08-29T02:48:54.080Z,25.51
2022-08-29T02:49:44.027Z,25.43
2022-08-29T02:50:44.056Z,25.44
2022-08-29T02:51:44.589Z,25.43
2022-08-29T02:52:43.982Z,25.44
2022-08-29T02:53:43.967Z,25.40
2022-08-29T02:54:43.949Z,25.44
2022-08-29T02:55:43.930Z,25.46
2022-08-29T02:56:43.912Z,25.43
2022-08-29T02:57:43.896Z,25.40
2022-08-29T02:58:44.597Z,25.40
2022-08-29T02:59:43.890Z,25.46
2022-08-29T03:00:44.636Z,25.41
2022-08-29T03:01:43.861Z,25.51
2022-08-29T03:02:43.822Z,25.44
2022-08-29T03:03:43.819Z,25.47
2022-08-29T03:04:43.781Z,25.41
2022-08-29T03:05:43.775Z,25.40
2022-08-29T03:06:43.759Z,25.36
2022-08-29T03:07:46.889Z,25.41
2022-08-29T03:08:43.759Z,25.51
2022-08-29T03:09:43.710Z,25.54
2022-08-29T03:10:43.700Z,25.53
2022-08-29T03:11:43.678Z,25.59
2022-08-29T03:12:43.695Z,25.54
2022-08-29T03:13:43.682Z,25.60
2022-08-29T03:14:44.615Z,25.59
2022-08-29T03:15:43.668Z,25.59
2022-08-29T03:16:43.611Z,25.59
2022-08-29T03:17:43.604Z,25.62
2022-08-29T03:18:43.565Z,25.69
2022-08-29T03:19:43.556Z,25.66
2022-08-29T03:20:43.541Z,25.68
2022-08-29T03:21:43.529Z,25.70
2022-08-29T03:22:43.543Z,25.69
2022-08-29T03:23:44.093Z,25.68
2022-08-29T03:24:43.475Z,25.59
2022-08-29T03:25:43.469Z,25.65
2022-08-29T03:26:43.481Z,25.66
2022-08-29T03:27:43.446Z,25.65
2022-08-29T03:28:43.415Z,25.63
2022-08-29T03:29:43.395Z,25.63
2022-08-29T03:30:43.399Z,25.68
2022-08-29T03:31:43.415Z,25.75
2022-08-29T03:32:43.361Z,25.77
2022-08-29T03:33:43.345Z,25.78
2022-08-29T03:34:43.324Z,25.77
2022-08-29T03:35:43.328Z,25.77
2022-08-29T03:36:43.309Z,25.78
2022-08-29T03:37:46.111Z,25.80
2022-08-29T03:38:43.276Z,25.77
2022-08-29T03:39:43.246Z,25.83
2022-08-29T03:40:43.283Z,25.81
2022-08-29T03:41:43.215Z,25.85
2022-08-29T03:42:43.205Z,25.83
2022-08-29T03:43:43.192Z,25.87
2022-08-29T03:44:43.169Z,25.91
2022-08-29T03:45:43.186Z,25.91
2022-08-29T03:46:43.218Z,25.91
2022-08-29T03:47:43.135Z,25.93
2022-08-29T03:48:43.134Z,25.90
2022-08-29T03:49:43.134Z,25.88
2022-08-29T03:50:43.101Z,25.87
2022-08-29T03:51:43.639Z,25.81
2022-08-29T03:52:43.052Z,25.90
2022-08-29T03:53:43.042Z,25.77
2022-08-29T03:54:43.047Z,25.77
2022-08-29T03:55:43.004Z,25.80
2022-08-29T03:56:43.003Z,25.83
2022-08-29T03:57:42.972Z,25.70
2022-08-29T03:58:43.619Z,25.68
2022-08-29T03:59:42.967Z,25.75
2022-08-29T04:00:43.615Z,25.66
2022-08-29T04:01:42.958Z,25.65
2022-08-29T04:02:42.929Z,25.60
2022-08-29T04:03:42.920Z,25.59
2022-08-29T04:04:42.883Z,25.60
2022-08-29T04:05:43.620Z,25.59
2022-08-29T04:06:42.879Z,25.59
2022-08-29T04:07:42.832Z,25.58
2022-08-29T04:08:42.824Z,25.48
2022-08-29T04:09:42.791Z,25.43
2022-08-29T04:10:42.781Z,25.43
2022-08-29T04:11:43.667Z,25.38
2022-08-29T04:12:42.775Z,25.38
2022-08-29T04:13:42.764Z,25.31
2022-08-29T04:14:42.718Z,25.32
2022-08-29T04:15:42.773Z,25.28
2022-08-29T04:16:42.689Z,25.26
2022-08-29T04:17:52.689Z,25.13
2022-08-29T04:18:42.646Z,25.21
2022-08-29T04:19:42.629Z,25.21
2022-08-29T04:20:42.619Z,25.22
2022-08-29T04:21:42.602Z,25.17
2022-08-29T04:22:42.602Z,25.21
2022-08-29T04:23:42.583Z,25.16
2022-08-29T04:24:42.554Z,25.22
2022-08-29T04:25:42.543Z,25.25
2022-08-29T04:26:42.552Z,25.26
2022-08-29T04:27:42.543Z,25.22
2022-08-29T04:28:42.511Z,25.23
2022-08-29T04:29:42.493Z,25.26
2022-08-29T04:30:42.481Z,25.18
2022-08-29T04:31:42.523Z,25.29
2022-08-29T04:32:42.434Z,25.29
2022-08-29T04:33:42.424Z,25.18
2022-08-29T04:34:42.410Z,25.25
2022-08-29T04:35:42.402Z,25.16
2022-08-29T04:36:42.387Z,25.18
2022-08-29T04:37:43.137Z,25.25
2022-08-29T04:38:42.343Z,25.13
2022-08-29T04:39:42.348Z,25.23
2022-08-29T04:40:42.408Z,25.21
2022-08-29T04:41:42.290Z,25.22
2022-08-29T04:42:42.293Z,25.18
2022-08-29T04:43:42.258Z,25.17
2022-08-29T04:44:42.261Z,25.13
2022-08-29T04:45:42.259Z,25.11
2022-08-29T04:46:42.288Z,25.10
2022-08-29T04:47:42.201Z,25.10
2022-08-29T04:48:42.190Z,25.06
2022-08-29T04:49:42.192Z,25.04
2022-08-29T04:50:42.170Z,25.03
2022-08-29T04:51:42.201Z,25.01
2022-08-29T04:52:42.124Z,24.99
2022-08-29T04:53:42.130Z,24.95
2022-08-29T04:54:42.111Z,24.96
2022-08-29T04:55:42.648Z,24.98
2022-08-29T04:56:47.146Z,24.96
2022-08-29T04:57:42.053Z,24.89
2022-08-29T04:58:42.074Z,24.88
2022-08-29T04:59:42.025Z,24.89
2022-08-29T05:00:42.063Z,24.88
2022-08-29T05:01:42.285Z,24.86
2022-08-29T05:02:42.019Z,24.80
2022-08-29T05:03:42.027Z,24.85
2022-08-29T05:04:41.935Z,24.80
2022-08-29T05:05:41.916Z,24.91
2022-08-29T05:06:41.902Z,24.78
2022-08-29T05:07:41.908Z,24.81
2022-08-29T05:08:41.903Z,24.81
2022-08-29T05:09:41.865Z,24.92
2022-08-29T05:10:41.842Z,24.81
2022-08-29T05:11:41.837Z,24.84
2022-08-29T05:12:41.831Z,24.92
2022-08-29T05:13:42.643Z,24.88
2022-08-29T05:14:41.775Z,24.81
2022-08-29T05:15:41.798Z,24.84
2022-08-29T05:16:41.766Z,24.84
2022-08-29T05:17:41.769Z,24.74
2022-08-29T05:18:41.775Z,24.85
2022-08-29T05:19:45.149Z,24.80
2022-08-29T05:20:41.697Z,24.77
2022-08-29T05:21:41.677Z,24.84
2022-08-29T05:22:41.648Z,24.76
2022-08-29T05:23:41.632Z,24.85
2022-08-29T05:24:41.616Z,24.80
2022-08-29T05:25:41.606Z,24.80
2022-08-29T05:26:41.611Z,24.74
2022-08-29T05:27:42.160Z,24.74
2022-08-29T05:28:41.548Z,24.81
2022-08-29T05:29:41.545Z,24.77
2022-08-29T05:30:41.603Z,24.76
2022-08-29T05:31:41.522Z,24.81
2022-08-29T05:32:41.548Z,24.80
2022-08-29T05:33:41.471Z,24.74
2022-08-29T05:34:41.482Z,24.80
2022-08-29T05:35:41.468Z,24.73
2022-08-29T05:36:41.445Z,24.80
2022-08-29T05:37:41.407Z,24.81
2022-08-29T05:38:41.408Z,24.80
2022-08-29T05:39:41.398Z,24.78
2022-08-29T05:40:41.428Z,24.80
2022-08-29T05:41:41.347Z,24.74
2022-08-29T05:42:41.333Z,24.86
2022-08-29T05:43:41.320Z,24.77
2022-08-29T05:44:41.331Z,24.81
2022-08-29T05:45:42.167Z,24.85
2022-08-29T05:46:41.377Z,24.81
2022-08-29T05:47:41.261Z,24.81
2022-08-29T05:48:41.273Z,24.74
2022-08-29T05:49:41.220Z,24.85
2022-08-29T05:50:41.205Z,24.78
2022-08-29T05:51:41.191Z,24.80
2022-08-29T05:52:41.193Z,24.81
2022-08-29T05:53:41.183Z,24.92
2022-08-29T05:54:41.708Z,24.86
2022-08-29T05:55:41.125Z,24.84
2022-08-29T05:56:41.118Z,24.89
2022-08-29T05:57:41.110Z,24.96
2022-08-29T05:58:41.117Z,24.85
2022-08-29T05:59:41.061Z,24.98
2022-08-29T06:00:41.048Z,24.86
2022-08-29T06:01:41.050Z,24.95
2022-08-29T06:02:41.175Z,24.88
2022-08-29T06:03:45.455Z,24.93
2022-08-29T06:04:40.987Z,24.89
2022-08-29T06:05:40.972Z,24.88
2022-08-29T06:06:41.008Z,24.96
2022-08-29T06:07:40.964Z,24.96
2022-08-29T06:08:40.981Z,24.98
2022-08-29T06:09:40.905Z,24.92
2022-08-29T06:10:40.910Z,24.93
2022-08-29T06:11:40.888Z,24.92
2022-08-29T06:12:40.866Z,24.89
2022-08-29T06:13:40.841Z,24.93
2022-08-29T06:14:40.838Z,24.89
2022-08-29T06:15:40.891Z,24.98
2022-08-29T06:16:40.836Z,24.96
2022-08-29T06:17:40.799Z,25.03
2022-08-29T06:18:40.770Z,25.03
2022-08-29T06:19:40.763Z,24.95
2022-08-29T06:20:40.761Z,24.98
2022-08-29T06:21:40.724Z,24.98
2022-08-29T06:22:40.795Z,24.99
2022-08-29T06:23:40.689Z,25.03
2022-08-29T06:24:44.482Z,24.98
2022-08-29T06:25:40.752Z,24.98
2022-08-29T06:26:41.217Z,24.95
2022-08-29T06:27:40.625Z,24.93
2022-08-29T06:28:40.613Z,24.96
2022-08-29T06:29:43.086Z,24.96
2022-08-29T06:30:40.651Z,24.89
2022-08-29T06:31:40.561Z,24.96
2022-08-29T06:32:40.545Z,24.98
2022-08-29T06:34:40.553Z,24.98
2022-08-29T06:35:40.559Z,24.95
2022-08-29T06:36:40.513Z,24.96
2022-08-29T06:37:40.499Z,25.10
2022-08-29T06:38:40.474Z,25.01
2022-08-29T06:39:40.465Z,25.07
2022-08-29T06:41:01.469Z,25.10
2022-08-29T06:41:40.435Z,25.14
2022-08-29T06:42:40.435Z,25.16
2022-08-29T06:43:40.408Z,25.07
2022-08-29T06:44:44.419Z,25.11
2022-08-29T06:45:40.362Z,25.14
2022-08-29T06:47:01.366Z,25.10
2022-08-29T06:47:40.349Z,25.06
2022-08-29T06:48:40.324Z,25.11
2022-08-29T06:49:40.366Z,25.10
2022-08-29T06:50:44.889Z,25.13
2022-08-29T06:51:40.288Z,25.14
2022-08-29T06:53:20.643Z,25.14
2022-08-29T06:53:40.465Z,25.11
2022-08-29T06:54:40.228Z,25.10
2022-08-29T06:55:40.216Z,25.11
2022-08-29T06:56:40.199Z,25.13
2022-08-29T06:57:40.185Z,25.16
2022-08-29T06:59:01.792Z,25.08
2022-08-29T06:59:40.144Z,25.21
2022-08-29T07:00:40.167Z,25.13
2022-08-29T07:01:40.170Z,25.10
2022-08-29T07:02:40.210Z,25.18
2022-08-29T07:03:40.084Z,25.14
2022-08-29T07:05:01.110Z,25.14
2022-08-29T07:05:40.091Z,25.07
2022-08-29T07:06:40.036Z,25.13
2022-08-29T07:07:40.789Z,25.08
2022-08-29T07:08:55.261Z,25.14
2022-08-29T07:09:40.055Z,25.13
2022-08-29T07:11:00.991Z,25.08
2022-08-29T07:11:41.293Z,25.11
2022-08-29T07:12:39.973Z,25.14
2022-08-29T07:13:39.934Z,25.21
2022-08-29T07:14:39.955Z,25.18
2022-08-29T07:15:39.905Z,25.11
2022-08-29T07:17:00.944Z,25.13
2022-08-29T07:17:39.866Z,25.13
2022-08-29T07:18:41.150Z,25.18
2022-08-29T07:19:39.875Z,25.22
2022-08-29T07:20:39.840Z,25.14
2022-08-29T07:21:39.802Z,25.10
2022-08-29T07:23:00.800Z,25.18
2022-08-29T07:23:39.803Z,25.16
2022-08-29T07:24:39.792Z,25.16
2022-08-29T07:25:40.298Z,25.22
2022-08-29T07:26:39.753Z,25.18
2022-08-29T07:27:39.725Z,25.13
2022-08-29T07:29:00.725Z,25.17
2022-08-29T07:29:39.690Z,25.14
2022-08-29T07:30:39.805Z,25.18
2022-08-29T07:31:39.654Z,25.13
2022-08-29T07:32:39.660Z,25.26
2022-08-29T07:33:39.613Z,25.25
2022-08-29T07:35:00.632Z,25.26
2022-08-29T07:35:39.589Z,25.22
2022-08-29T07:36:39.579Z,25.29
2022-08-29T07:37:39.559Z,25.29
2022-08-29T07:38:39.562Z,25.28
2022-08-29T07:39:39.539Z,25.26
2022-08-29T07:41:00.513Z,25.29
2022-08-29T07:41:39.517Z,25.21
2022-08-29T07:42:39.486Z,25.22
2022-08-29T07:43:39.479Z,25.23
2022-08-29T07:44:39.447Z,25.23
2022-08-29T07:45:39.504Z,25.25
2022-08-29T07:47:00.437Z,25.28
2022-08-29T07:47:39.411Z,25.14
2022-08-29T07:48:39.418Z,25.21
2022-08-29T07:49:41.689Z,25.16
2022-08-29T07:50:39.418Z,25.11
2022-08-29T07:51:39.348Z,25.26
2022-08-29T07:53:00.317Z,25.26
2022-08-29T07:53:39.452Z,25.31
2022-08-29T07:54:39.294Z,25.29
2022-08-29T07:55:39.363Z,25.32
2022-08-29T07:56:39.275Z,25.31
2022-08-29T07:57:39.982Z,25.31
2022-08-29T07:59:00.224Z,25.32
2022-08-29T07:59:39.228Z,25.35
2022-08-29T08:00:39.197Z,25.32
2022-08-29T08:01:39.219Z,25.40
2022-08-29T08:02:39.287Z,25.38
2022-08-29T08:03:39.155Z,25.33
2022-08-29T08:05:00.154Z,25.43
2022-08-29T08:05:39.121Z,25.40
2022-08-29T08:06:39.120Z,25.35
2022-08-29T08:07:40.084Z,25.31
2022-08-29T08:08:39.086Z,25.32
2022-08-29T08:09:39.096Z,25.25
2022-08-29T08:11:00.052Z,25.32
2022-08-29T08:11:39.042Z,25.31
2022-08-29T08:12:39.011Z,25.31
2022-08-29T08:13:39.026Z,25.43
2022-08-29T08:14:38.979Z,25.41
2022-08-29T08:15:38.997Z,25.33
2022-08-29T08:16:59.977Z,25.40
2022-08-29T08:17:43.348Z,25.32
2022-08-29T08:18:38.935Z,25.25
2022-08-29T08:19:38.954Z,25.29
2022-08-29T08:20:39.823Z,25.31
2022-08-29T08:21:38.875Z,25.25
2022-08-29T08:22:59.873Z,25.25
2022-08-29T08:23:38.848Z,25.18
2022-08-29T08:24:38.824Z,25.14
2022-08-29T08:25:38.829Z,25.23
2022-08-29T08:26:38.873Z,25.17
2022-08-29T08:27:43.396Z,25.21
2022-08-29T08:28:59.764Z,25.23
2022-08-29T08:29:38.791Z,25.25
2022-08-29T08:30:38.782Z,25.21
2022-08-29T08:31:38.830Z,25.23
2022-08-29T08:32:41.106Z,25.25
2022-08-29T08:33:38.699Z,25.22
2022-08-29T08:34:59.691Z,25.32
2022-08-29T08:35:41.906Z,25.23
2022-08-29T08:36:41.030Z,25.22
2022-08-29T08:37:38.643Z,25.23
2022-08-29T08:38:38.614Z,25.22
2022-08-29T08:39:38.589Z,25.26
2022-08-29T08:40:59.640Z,25.22
2022-08-29T08:41:38.637Z,25.25
2022-08-29T08:42:38.562Z,25.25
2022-08-29T08:43:38.615Z,25.23
2022-08-29T08:44:38.513Z,25.21
2022-08-29T08:45:38.560Z,25.26
2022-08-29T08:46:59.498Z,25.31
2022-08-29T08:47:38.471Z,25.23
2022-08-29T08:48:38.473Z,25.23
2022-08-29T08:49:38.458Z,25.21
2022-08-29T08:50:38.455Z,25.35
2022-08-29T08:51:38.424Z,25.32
2022-08-29T08:52:59.498Z,25.33
2022-08-29T08:53:38.384Z,25.35
2022-08-29T08:54:38.378Z,25.43
2022-08-29T08:55:38.376Z,25.38
2022-08-29T08:56:38.324Z,25.46
2022-08-29T08:57:38.309Z,25.38
2022-08-29T08:58:59.296Z,25.29
2022-08-29T08:59:38.315Z,25.31
2022-08-29T09:00:38.272Z,25.31
2022-08-29T09:01:39.026Z,25.33
2022-08-29T09:02:38.299Z,25.38
2022-08-29T09:03:38.216Z,25.29
2022-08-29T09:04:59.216Z,25.26
2022-08-29T09:05:38.186Z,25.23
2022-08-29T09:06:38.200Z,25.31
2022-08-29T09:07:38.162Z,25.25
2022-08-29T09:08:38.140Z,25.22
2022-08-29T09:09:38.133Z,25.23
2022-08-29T09:10:59.385Z,25.25
2022-08-29T09:11:38.090Z,25.21
2022-08-29T09:12:38.078Z,25.23
2022-08-29T09:13:38.075Z,25.26
2022-08-29T09:14:38.036Z,25.23
2022-08-29T09:15:38.063Z,25.23
2022-08-29T09:16:59.077Z,25.25
2022-08-29T09:17:38.026Z,25.22
2022-08-29T09:18:37.986Z,25.32
2022-08-29T09:19:37.972Z,25.33
2022-08-29T09:20:37.950Z,25.31
2022-08-29T09:21:41.040Z,25.35
2022-08-29T09:22:58.957Z,25.35
2022-08-29T09:23:37.896Z,25.33
2022-08-29T09:24:37.913Z,25.31
2022-08-29T09:25:37.930Z,25.28
2022-08-29T09:26:37.883Z,25.29
2022-08-29T09:27:37.849Z,25.31
2022-08-29T09:28:58.824Z,25.33
2022-08-29T09:29:37.830Z,25.31
2022-08-29T09:30:37.790Z,25.35
2022-08-29T09:31:38.788Z,25.28
2022-08-29T09:32:37.793Z,25.31
2022-08-29T09:33:38.343Z,25.33
2022-08-29T09:35:08.523Z,25.31
2022-08-29T09:35:37.721Z,25.33
2022-08-29T09:36:37.754Z,25.33
2022-08-29T09:37:37.678Z,25.23
2022-08-29T09:38:37.692Z,25.26
2022-08-29T09:39:37.652Z,25.26
2022-08-29T09:40:58.644Z,25.18
2022-08-29T09:41:37.621Z,25.22
2022-08-29T09:42:37.615Z,25.23
2022-08-29T09:43:37.624Z,25.21
2022-08-29T09:44:37.582Z,25.21
2022-08-29T09:45:37.649Z,25.16
2022-08-29T09:46:58.627Z,25.25
2022-08-29T09:47:37.528Z,25.28
2022-08-29T09:48:37.504Z,25.26
2022-08-29T09:49:37.502Z,25.25
2022-08-29T09:50:37.498Z,25.31
2022-08-29T09:51:37.475Z,25.29
2022-08-29T09:52:58.444Z,25.25
2022-08-29T09:53:37.506Z,25.25
2022-08-29T09:54:37.428Z,25.18
2022-08-29T09:55:37.407Z,25.23
2022-08-29T09:56:37.407Z,25.26
2022-08-29T09:57:37.387Z,25.21
2022-08-29T09:58:58.360Z,25.33
2022-08-29T09:59:37.345Z,25.21
2022-08-29T10:00:37.332Z,25.23
2022-08-29T10:01:37.445Z,25.23
2022-08-29T10:02:37.341Z,25.18
2022-08-29T10:03:38.111Z,25.18
2022-08-29T10:04:58.263Z,25.18
2022-08-29T10:05:37.259Z,25.16
2022-08-29T10:06:42.714Z,25.18
2022-08-29T10:07:37.812Z,25.21
2022-08-29T10:08:37.219Z,25.13
2022-08-29T10:09:37.192Z,25.13
2022-08-29T10:10:58.900Z,25.11
2022-08-29T10:11:37.143Z,25.13
2022-08-29T10:12:37.207Z,25.21
2022-08-29T10:13:37.118Z,25.14
2022-08-29T10:14:37.905Z,25.17
2022-08-29T10:15:50.410Z,25.21
2022-08-29T10:16:58.103Z,25.16
2022-08-29T10:17:37.095Z,25.16
2022-08-29T10:18:37.041Z,25.13
2022-08-29T10:19:37.056Z,25.18
2022-08-29T10:20:37.035Z,25.23
2022-08-29T10:21:37.030Z,25.26
2022-08-29T10:22:58.032Z,25.33
2022-08-29T10:23:37.902Z,25.18
2022-08-29T10:24:36.970Z,25.22
2022-08-29T10:25:36.996Z,25.23
2022-08-29T10:26:36.937Z,25.26
2022-08-29T10:27:36.897Z,25.31
2022-08-29T10:29:36.920Z,25.31
2022-08-29T10:30:36.905Z,25.31
2022-08-29T10:31:37.010Z,25.31
2022-08-29T10:32:36.838Z,25.32
2022-08-29T10:33:36.831Z,25.22
2022-08-29T10:36:08.431Z,25.26
2022-08-29T10:37:08.347Z,25.33
2022-08-29T10:39:03.219Z,25.31
2022-08-29T10:40:03.377Z,25.28
2022-08-29T10:41:03.341Z,25.36
2022-08-29T10:42:03.776Z,25.31
2022-08-29T10:43:03.187Z,25.26
2022-08-29T10:44:04.722Z,25.25
2022-08-29T10:45:03.148Z,25.25
2022-08-29T10:46:03.189Z,25.31
2022-08-29T10:47:03.138Z,25.25
2022-08-29T10:48:03.089Z,25.22
2022-08-29T10:49:03.076Z,25.22
2022-08-29T10:50:03.081Z,25.22
2022-08-29T10:51:03.839Z,25.17
2022-08-29T10:52:03.087Z,25.21
2022-08-29T10:53:09.889Z,25.16
2022-08-29T10:54:03.020Z,25.18
2022-08-29T10:55:03.018Z,25.26
2022-08-29T10:56:06.832Z,25.23
2022-08-29T10:57:02.941Z,25.22
2022-08-29T10:58:02.944Z,25.28
2022-08-29T10:59:02.931Z,25.23
2022-08-29T11:00:02.890Z,25.26
2022-08-29T11:01:06.885Z,25.29
2022-08-29T11:02:02.864Z,25.32
2022-08-29T11:03:03.788Z,25.26
2022-08-29T11:04:02.886Z,25.29
2022-08-29T11:05:02.858Z,25.29
2022-08-29T11:06:02.801Z,25.23
2022-08-29T11:07:02.794Z,25.26
2022-08-29T11:08:03.081Z,25.21
2022-08-29T11:09:02.785Z,25.25
2022-08-29T11:10:02.751Z,25.21
2022-08-29T11:11:02.721Z,25.28
2022-08-29T11:12:02.728Z,25.22
2022-08-29T11:13:02.725Z,25.23
2022-08-29T11:14:05.887Z,25.28
2022-08-29T11:15:02.692Z,25.28
2022-08-29T11:16:02.686Z,25.21
2022-08-29T11:17:03.221Z,25.26
2022-08-29T11:18:02.666Z,25.22
2022-08-29T11:19:02.589Z,25.23
2022-08-29T11:20:02.575Z,25.25
2022-08-29T11:21:02.580Z,25.21
2022-08-29T11:22:02.559Z,25.26
2022-08-29T11:23:03.287Z,25.21
2022-08-29T11:24:02.542Z,25.17
2022-08-29T11:25:02.518Z,25.22
2022-08-29T11:26:02.518Z,25.29
2022-08-29T11:27:02.483Z,25.26
2022-08-29T11:28:02.480Z,25.31
2022-08-29T11:29:02.437Z,25.29
2022-08-29T11:30:02.439Z,25.29
2022-08-29T11:31:02.449Z,25.36
2022-08-29T11:32:02.450Z,25.43
2022-08-29T11:33:02.401Z,25.44
2022-08-29T11:34:02.359Z,25.44
2022-08-29T11:35:02.349Z,25.38
2022-08-29T11:36:05.016Z,25.33
2022-08-29T11:37:02.362Z,25.31
2022-08-29T11:38:02.295Z,25.25
2022-08-29T11:39:02.299Z,25.21
2022-08-29T11:40:02.317Z,25.22
2022-08-29T11:42:02.258Z,25.28
2022-08-29T11:43:02.219Z,25.25
2022-08-29T11:44:02.213Z,25.17
2022-08-29T11:45:02.204Z,25.23
2022-08-29T11:46:02.184Z,25.26
2022-08-29T11:47:02.213Z,25.25
2022-08-29T11:48:02.150Z,25.21
2022-08-29T11:49:02.168Z,25.28
2022-08-29T11:50:02.109Z,25.29
2022-08-29T11:51:02.128Z,25.43
2022-08-29T11:52:02.197Z,25.38
2022-08-29T11:53:02.099Z,25.41
2022-08-29T11:54:02.060Z,25.47
2022-08-29T11:55:02.092Z,25.43
2022-08-29T11:56:02.015Z,25.35
2022-08-29T11:57:02.009Z,25.38
2022-08-29T11:58:05.650Z,25.38
2022-08-29T11:59:01.999Z,25.41
2022-08-29T12:00:02.003Z,25.43
2022-08-29T12:01:01.935Z,25.36
2022-08-29T12:02:02.048Z,25.40
2022-08-29T12:03:04.399Z,25.36
2022-08-29T12:04:02.793Z,25.41
2022-08-29T12:05:01.887Z,25.32
2022-08-29T12:06:01.865Z,25.28
2022-08-29T12:07:01.858Z,25.32
2022-08-29T12:08:14.428Z,25.22
2022-08-29T12:09:05.285Z,25.33
2022-08-29T12:10:01.839Z,25.33
2022-08-29T12:11:01.803Z,25.25
2022-08-29T12:12:01.774Z,25.28
2022-08-29T12:13:02.324Z,25.18
2022-08-29T12:14:04.728Z,25.23
2022-08-29T12:15:01.723Z,25.11
2022-08-29T12:16:01.769Z,25.16
2022-08-29T12:17:01.723Z,25.18
2022-08-29T12:18:12.119Z,25.11
2022-08-29T12:19:01.656Z,25.03
2022-08-29T12:20:01.699Z,24.96
2022-08-29T12:21:01.659Z,25.01
2022-08-29T12:22:01.651Z,24.96
2022-08-29T12:23:01.593Z,24.93
2022-08-29T12:24:01.582Z,24.89
2022-08-29T12:25:01.581Z,24.92
2022-08-29T12:26:21.556Z,24.98
2022-08-29T12:27:01.557Z,24.98
2022-08-29T12:28:01.506Z,24.95
2022-08-29T12:29:01.516Z,25.06
2022-08-29T12:30:01.633Z,25.01
2022-08-29T12:31:01.465Z,24.96
2022-08-29T12:32:18.796Z,24.99
2022-08-29T12:33:01.434Z,25.01
2022-08-29T12:34:01.432Z,25.01
2022-08-29T12:35:02.307Z,24.86
2022-08-29T12:36:02.316Z,24.96
2022-08-29T12:37:01.366Z,24.80
2022-08-29T12:38:01.362Z,24.91
2022-08-29T12:39:01.363Z,24.89
2022-08-29T12:40:01.457Z,24.85
2022-08-29T12:41:01.360Z,24.80
2022-08-29T12:42:01.291Z,24.89
2022-08-29T12:43:01.282Z,24.86
2022-08-29T12:44:01.280Z,24.96
2022-08-29T12:45:01.251Z,24.96
2022-08-29T12:46:01.225Z,24.92
2022-08-29T12:47:01.297Z,25.01
2022-08-29T12:48:01.206Z,25.04
2022-08-29T12:49:01.217Z,24.98
2022-08-29T12:50:01.276Z,24.98
2022-08-29T12:51:01.150Z,24.98
2022-08-29T12:52:01.128Z,24.93
2022-08-29T12:53:01.119Z,24.91
2022-08-29T12:54:01.205Z,24.98
2022-08-29T12:55:01.082Z,24.98
2022-08-29T12:56:01.088Z,24.93
2022-08-29T12:57:01.055Z,25.10
2022-08-29T12:58:01.079Z,25.01